Isle of Jura, United Kingdom
Current Conditions -  °F | °C
As of 3:50 AM on Tuesday 23 Dec 2014 (Local Time) from EGPI Reporting Station
Light Rain Light Rain  
Wind Chill: 39°   Ceiling: 3200
Heat Index: 46°   Visibility: 6mi
Dew Point: 41°   Wind: 21mph
Humidity: 81%   Direction: 270°W
Pressure: 29.65"   Gusts: NA
Location:  55.84°N, 5.95°W
Report Text: EGPI 230350Z AUTO 27018KT 9999 -RA FEW028/// BKN032/// 08/05 Q1004
Loading
Personal Weather Stations






























Interactive Weather Map New forecast layout! Learn more

10-Day Weather Forecast

Advertisements
Track Severe Weather on mobile